Array
(
    [0] => p
    [1] => METAR
)
- বাংলা English

Monsoon is less active over Bangladesh and weak over North Bay.

METAR

 VGHS 250100Z 23004KT 3500 HZ SCT015  BKN100 29/26 Q1009 NOSIG=